»·PEaware :: CFEGU 8W5-KYKM

CFEGU :: 8W5-KYKM

FLIGHT INFORMATION

Flight Status: Arrived
Operator: Unknown
More flights by this operator :: More flights under this callsign
Pilot: Vincent M. (370)
Aircraft: CESSNA 172 SKYHAWK
(C172)
More flights by this aircraft type
Origin: 8W5 Apex Airpark
United States
Destination: KYKM Yakima Air Term/Mcallister
United States
More flights between these airports :: More routes between these airports
Route:
File this flight plan on PilotEdge
Remarks: Washington Alphabet Challenge
Altitude:
(Current/Filed)
7,500ft
Speed:
(Current/Filed)
110kts
Departed: 15-May-20 09:31 AM
Arrived: 15-May-20 11:00 AM
Distance/Time
Traveled:
110nm/1:29
Distance/Time
To Go:
Arrived

Flight Plot

Page will automatically refresh every two minutes.


Map Options




Map Legend


Flown Route
Filed Route
Departure Airport
Arrival Airport
Navaid (VOR, NDB)
Fix

Horizontal Profiles

Position Reports

Time Latitude Longitude Heading Altitude Ground
Speed
15-May-20 09:23 47.661351 -122.732698 181 528ft 0kts
15-May-20 09:24 47.661351 -122.732698 181 528ft 0kts
15-May-20 09:25 47.661351 -122.732698 181 528ft 0kts
15-May-20 09:26 47.661351 -122.732698 181 528ft 0kts
15-May-20 09:27 47.661351 -122.732698 181 528ft 0kts
15-May-20 09:28 47.661351 -122.732698 181 528ft 0kts
15-May-20 09:29 47.660194 -122.732302 184 525ft 6kts
15-May-20 09:30 47.649593 -122.733598 180 858ft 74kts
15-May-20 09:31 47.628827 -122.735564 182 1731ft 79kts
15-May-20 09:32 47.606633 -122.737978 182 2563ft 80kts
15-May-20 09:33 47.583979 -122.740453 182 3341ft 82kts
15-May-20 09:34 47.561139 -122.742096 180 4107ft 83kts
15-May-20 09:35 47.537832 -122.743301 180 4815ft 84kts
15-May-20 09:36 47.514331 -122.744483 180 5471ft 85kts
15-May-20 09:37 47.490730 -122.745599 180 6113ft 83kts
15-May-20 09:38 47.466991 -122.748298 185 6688ft 86kts
15-May-20 09:39 47.443186 -122.752829 185 7251ft 86kts
15-May-20 09:40 47.417094 -122.754537 180 7504ft 107kts
15-May-20 09:41 47.386601 -122.755111 180 7500ft 110kts
15-May-20 09:42 47.356102 -122.755728 185 7500ft 109kts
15-May-20 09:43 47.325812 -122.760733 186 7500ft 109kts
15-May-20 09:44 47.295583 -122.765685 186 7499ft 109kts
15-May-20 09:45 47.265625 -122.772897 190 7500ft 109kts
15-May-20 09:46 47.235264 -122.775325 182 7499ft 109kts
15-May-20 09:47 47.204918 -122.777455 181 7499ft 109kts
15-May-20 09:48 47.174598 -122.778188 180 7500ft 109kts
15-May-20 09:49 47.143977 -122.778816 180 7500ft 109kts
15-May-20 09:50 47.113507 -122.779331 180 7500ft 109kts
15-May-20 09:51 47.083044 -122.780949 183 7500ft 109kts
15-May-20 09:52 47.052682 -122.778842 170 7500ft 109kts
15-May-20 09:53 47.022387 -122.772937 175 7500ft 110kts
15-May-20 09:54 46.992019 -122.769033 174 7500ft 110kts
15-May-20 09:55 46.961590 -122.764407 173 7499ft 110kts
15-May-20 09:56 46.931338 -122.758835 171 7499ft 110kts
15-May-20 09:57 46.902638 -122.747085 128 7501ft 109kts
15-May-20 09:58 46.884007 -122.711836 129 7500ft 110kts
15-May-20 09:59 46.864370 -122.677501 129 7500ft 110kts
15-May-20 10:00 46.845002 -122.643148 126 7499ft 109kts
15-May-20 10:01 46.827212 -122.606895 125 7500ft 109kts
15-May-20 10:02 46.809496 -122.570506 125 7500ft 109kts
15-May-20 10:03 46.792543 -122.533398 122 7500ft 109kts
15-May-20 10:04 46.775950 -122.495879 122 7500ft 109kts
15-May-20 10:05 46.759500 -122.458467 122 7500ft 109kts
15-May-20 10:06 46.743065 -122.420872 122 7500ft 109kts
15-May-20 10:07 46.726699 -122.383214 122 7500ft 109kts
15-May-20 10:08 46.709706 -122.346333 127 7500ft 110kts
15-May-20 10:09 46.691393 -122.310722 127 7500ft 110kts
15-May-20 10:10 46.673129 -122.275016 127 7500ft 110kts
15-May-20 10:11 46.654929 -122.239238 126 7499ft 110kts
15-May-20 10:12 46.636822 -122.203441 126 7499ft 110kts
15-May-20 10:13 46.618790 -122.167592 126 7500ft 110kts
15-May-20 10:14 46.600808 -122.131639 126 7500ft 110kts
15-May-20 10:15 46.582898 -122.095627 126 7500ft 110kts
15-May-20 10:16 46.565488 -122.058985 124 7500ft 110kts
15-May-20 10:17 46.548516 -122.022048 123 7500ft 110kts
15-May-20 10:18 46.531652 -121.985127 123 7500ft 110kts
15-May-20 10:19 46.514814 -121.948041 123 7499ft 110kts
15-May-20 10:20 46.499211 -121.909960 117 7500ft 110kts
15-May-20 10:21 46.484987 -121.870681 117 7500ft 110kts
15-May-20 10:22 46.470113 -121.831892 119 7499ft 110kts
15-May-20 10:23 46.455098 -121.793242 119 7499ft 110kts
15-May-20 10:24 46.440121 -121.754430 119 7499ft 110kts
15-May-20 10:25 46.425788 -121.715339 117 7499ft 110kts
15-May-20 10:26 46.411935 -121.675745 116 7499ft 110kts
15-May-20 10:27 46.398218 -121.636244 116 7500ft 110kts
15-May-20 10:28 46.384505 -121.596471 116 7500ft 110kts
15-May-20 10:29 46.370936 -121.556824 116 7499ft 110kts
15-May-20 10:30 46.357426 -121.517059 115 7500ft 110kts
15-May-20 10:31 46.343996 -121.477234 115 7500ft 110kts
15-May-20 10:32 46.330669 -121.437421 115 7500ft 110kts
15-May-20 10:33 46.321891 -121.396413 73 7500ft 109kts
15-May-20 10:34 46.329814 -121.353686 78 7500ft 110kts
15-May-20 10:35 46.335546 -121.310184 78 7499ft 110kts
15-May-20 10:36 46.343033 -121.267182 73 7499ft 110kts
15-May-20 10:37 46.352192 -121.224927 71 7499ft 110kts
15-May-20 10:38 46.361882 -121.182978 71 7500ft 110kts
15-May-20 10:39 46.371715 -121.140823 71 7499ft 110kts
15-May-20 10:40 46.381184 -121.098729 73 7500ft 110kts
15-May-20 10:41 46.394314 -121.058774 64 7497ft 110kts
15-May-20 10:42 46.408773 -121.015720 64 6507ft 119kts
15-May-20 10:43 46.422867 -120.972442 65 5503ft 118kts
15-May-20 10:44 46.436840 -120.929452 65 4496ft 116kts
15-May-20 10:45 46.450505 -120.887726 65 3541ft 111kts
15-May-20 10:46 46.462601 -120.851979 63 3498ft 96kts
15-May-20 10:47 46.474492 -120.817372 63 3497ft 95kts
15-May-20 10:48 46.486403 -120.782958 63 3497ft 95kts
15-May-20 10:49 46.498376 -120.748597 62 3497ft 95kts
15-May-20 10:50 46.511825 -120.709331 64 2785ft 119kts
15-May-20 10:51 46.525280 -120.670012 63 2104ft 93kts
15-May-20 10:53 46.536226 -120.639035 62 2109ft 85kts
15-May-20 10:54 46.546831 -120.608157 64 2109ft 85kts
15-May-20 10:55 46.548534 -120.575290 103 2109ft 85kts
15-May-20 10:56 46.543037 -120.541734 103 2109ft 85kts
15-May-20 10:57 46.537852 -120.508139 88 2106ft 85kts
15-May-20 10:58 46.555722 -120.503341 312 1803ft 79kts
15-May-20 10:59 46.565103 -120.529923 289 1147ft 70kts
15-May-20 11:00 46.569091 -120.542142 357 1103ft 0kts
15-May-20 11:01 46.570783 -120.547289 340 1103ft 22kts
15-May-20 11:02 46.571490 -120.547765 153 1103ft 0kts

Navigation Log

Ident Type
Flight plan parsing failed, navigation log unavailable